Time;durP1;ratioP1;P1;durP2;ratioP2;P2;SDS_P1;SDS_P2;PMS_P1;PMS_P2;Temp;Humidity;BMP_temperature;BMP_pressure;BME280_temperature;BME280_humidity;BME280_pressure;Samples;Min_cycle;Max_cycle;Signal;HPM_P1;HPM_P2
2022/07/14 00:02:21;;;;;;;23.73;6.40;;;;;;;;;;5053622;28;20100;-49
2022/07/14 00:04:48;;;;;;;18.45;6.47;;;;;;;;;;5052374;28;20496;-38
2022/07/14 00:07:14;;;;;;;13.50;5.00;;;;;;;;;;5052235;28;20053;-39
2022/07/14 00:09:40;;;;;;;16.52;4.50;;;;;;;;;;5053355;28;20033;-39
2022/07/14 00:12:06;;;;;;;18.23;4.68;;;;;;;;;;5053351;28;20020;-39
2022/07/14 00:14:32;;;;;;;12.73;4.68;;;;;;;;;;5053438;28;20074;-38
2022/07/14 00:16:58;;;;;;;19.52;4.72;;;;;;;;;;5053399;28;20029;-38
2022/07/14 00:19:24;;;;;;;15.52;4.30;;;;;;;;;;5053419;28;20091;-37
2022/07/14 00:21:50;;;;;;;14.43;5.30;;;;;;;;;;5052158;28;20033;-38
2022/07/14 00:24:16;;;;;;;19.63;3.72;;;;;;;;;;5053263;28;20041;-38
2022/07/14 00:26:42;;;;;;;10.23;4.10;;;;;;;;;;5053384;28;20036;-38
2022/07/14 00:29:09;;;;;;;10.02;3.80;;;;;;;;;;5053305;28;20048;-40
2022/07/14 00:31:36;;;;;;;18.45;4.70;;;;;;;;;;5053217;28;20025;-38
2022/07/14 00:34:02;;;;;;;11.57;3.35;;;;;;;;;;5051904;28;20128;-39
2022/07/14 00:36:28;;;;;;;27.13;5.82;;;;;;;;;;5051813;28;20021;-39
2022/07/14 00:38:54;;;;;;;17.52;3.70;;;;;;;;;;5053081;28;20025;-39
2022/07/14 00:41:20;;;;;;;15.93;3.28;;;;;;;;;;5052656;28;20033;-39
2022/07/14 00:43:46;;;;;;;13.05;5.15;;;;;;;;;;5051486;28;20039;-39
2022/07/14 00:46:12;;;;;;;11.35;3.63;;;;;;;;;;5052586;28;20358;-38
2022/07/14 00:48:38;;;;;;;16.60;3.92;;;;;;;;;;5052810;28;20029;-38
2022/07/14 00:51:05;;;;;;;13.20;3.35;;;;;;;;;;5052555;28;20017;-38
2022/07/14 00:53:31;;;;;;;14.25;3.83;;;;;;;;;;5052969;28;20410;-39
2022/07/14 00:55:57;;;;;;;13.25;3.53;;;;;;;;;;5056278;28;20071;-39
2022/07/14 00:58:23;;;;;;;18.75;5.20;;;;;;;;;;5056281;28;20056;-40
2022/07/14 01:00:49;;;;;;;8.13;2.47;;;;;;;;;;5054849;28;20033;-39
2022/07/14 01:03:15;;;;;;;9.77;3.78;;;;;;;;;;5056314;28;20100;-38
2022/07/14 01:05:42;;;;;;;13.68;3.75;;;;;;;;;;5056372;28;20491;-38
2022/07/14 01:08:08;;;;;;;17.90;3.00;;;;;;;;;;5055694;28;20200;-38
2022/07/14 01:10:34;;;;;;;12.65;3.40;;;;;;;;;;5054788;28;20362;-38
2022/07/14 01:13:01;;;;;;;19.13;4.00;;;;;;;;;;5056233;28;20394;-38
2022/07/14 01:15:27;;;;;;;13.23;3.25;;;;;;;;;;5056281;28;20153;-38
2022/07/14 01:17:53;;;;;;;9.43;2.78;;;;;;;;;;5056089;28;20029;-39
2022/07/14 01:20:20;;;;;;;11.18;2.72;;;;;;;;;;5055791;28;20033;-38
2022/07/14 01:22:46;;;;;;;10.18;4.47;;;;;;;;;;5055903;28;20106;-39
2022/07/14 01:25:13;;;;;;;10.73;2.63;;;;;;;;;;5055622;28;20071;-38
2022/07/14 01:27:39;;;;;;;11.88;2.45;;;;;;;;;;5055886;28;20174;-38
2022/07/14 01:30:06;;;;;;;12.93;3.30;;;;;;;;;;5055854;28;20531;-40
2022/07/14 01:32:32;;;;;;;18.92;3.50;;;;;;;;;;5055706;28;20017;-38
2022/07/14 01:34:59;;;;;;;17.55;3.72;;;;;;;;;;5054264;28;20035;-38
2022/07/14 01:37:25;;;;;;;13.93;2.97;;;;;;;;;;5056134;28;20033;-37
2022/07/14 01:39:51;;;;;;;17.45;4.18;;;;;;;;;;5055841;28;20111;-38
2022/07/14 01:42:17;;;;;;;12.95;3.58;;;;;;;;;;5055849;28;20396;-40
2022/07/14 01:44:43;;;;;;;13.10;2.70;;;;;;;;;;5054159;28;20444;-38
2022/07/14 01:47:10;;;;;;;15.68;3.05;;;;;;;;;;5055516;28;20476;-38
2022/07/14 01:49:36;;;;;;;16.15;3.22;;;;;;;;;;5055471;28;20431;-39
2022/07/14 01:52:03;;;;;;;8.27;3.28;;;;;;;;;;5055492;28;20384;-39
2022/07/14 01:54:29;;;;;;;22.10;4.55;;;;;;;;;;5055599;28;20040;-38
2022/07/14 01:56:55;;;;;;;14.57;3.47;;;;;;;;;;5055503;28;20489;-38
2022/07/14 01:59:22;;;;;;;18.02;3.13;;;;;;;;;;5055409;28;20029;-38
2022/07/14 02:01:48;;;;;;;9.52;3.08;;;;;;;;;;5055375;28;20479;-38
2022/07/14 02:04:18;;;;;;;18.50;3.92;;;;;;;;;;5055146;28;20035;-39
2022/07/14 02:06:44;;;;;;;8.25;2.30;;;;;;;;;;5055510;28;20049;-40
2022/07/14 02:09:11;;;;;;;12.00;3.03;;;;;;;;;;5055783;28;20428;-39
2022/07/14 02:14:22;;;;;;;9.50;3.47;;;;;;;;;;5055248;28;20128;-37
2022/07/14 02:16:48;;;;;;;16.17;2.88;;;;;;;;;;5055281;28;20472;-39
2022/07/14 02:19:14;;;;;;;11.15;3.03;;;;;;;;;;5054805;28;20021;-39
2022/07/14 02:21:41;;;;;;;21.45;3.83;;;;;;;;;;5054883;28;20028;-39
2022/07/14 02:24:08;;;;;;;21.60;3.33;;;;;;;;;;5054783;28;20047;-39
2022/07/14 02:26:34;;;;;;;10.10;2.95;;;;;;;;;;5054967;28;20017;-38
2022/07/14 02:29:00;;;;;;;20.73;4.72;;;;;;;;;;5054489;28;20047;-37
2022/07/14 02:31:26;;;;;;;10.85;3.00;;;;;;;;;;5054919;28;20021;-38
2022/07/14 02:33:52;;;;;;;13.65;3.40;;;;;;;;;;5054889;28;20074;-38
2022/07/14 02:36:18;;;;;;;18.92;5.00;;;;;;;;;;5054550;28;20028;-39
2022/07/14 02:38:44;;;;;;;15.05;3.10;;;;;;;;;;5054530;28;20029;-39
2022/07/14 02:41:10;;;;;;;16.25;3.35;;;;;;;;;;5054489;28;20089;-39
2022/07/14 02:43:37;;;;;;;11.85;2.92;;;;;;;;;;5054535;28;20037;-38
2022/07/14 02:46:03;;;;;;;17.52;3.55;;;;;;;;;;5053018;28;20029;-37
2022/07/14 02:48:29;;;;;;;18.80;4.20;;;;;;;;;;5054120;28;20028;-40
2022/07/14 02:50:59;;;;;;;19.38;3.28;;;;;;;;;;5054499;28;20031;-38
2022/07/14 02:53:25;;;;;;;30.83;5.68;;;;;;;;;;5054459;28;20016;-40
2022/07/14 02:55:51;;;;;;;13.80;4.95;;;;;;;;;;5054465;28;20021;-38
2022/07/14 02:58:18;;;;;;;16.10;3.95;;;;;;;;;;5054216;28;20029;-38
2022/07/14 03:00:44;;;;;;;11.20;2.80;;;;;;;;;;5054117;28;20083;-40
2022/07/14 03:03:10;;;;;;;21.45;4.45;;;;;;;;;;5053954;28;20384;-39
2022/07/14 03:05:36;;;;;;;12.43;3.15;;;;;;;;;;5054029;28;20404;-40
2022/07/14 03:08:02;;;;;;;23.67;4.85;;;;;;;;;;5053528;28;20041;-38
2022/07/14 03:10:28;;;;;;;16.35;5.03;;;;;;;;;;5053997;28;20032;-38
2022/07/14 03:12:54;;;;;;;15.80;4.38;;;;;;;;;;5053873;28;20043;-38
2022/07/14 20:07:23;;;;;;;4.57;1.20;;;;;;;;;;5091293;28;20466;-38
2022/07/14 20:09:49;;;;;;;4.97;1.65;;;;;;;;;;5072377;28;20529;-38
2022/07/14 20:12:15;;;;;;;2.42;1.30;;;;;;;;;;5090976;28;20028;-40
2022/07/14 20:14:41;;;;;;;2.97;1.13;;;;;;;;;;5072535;28;20491;-39
2022/07/14 20:17:07;;;;;;;4.43;1.15;;;;;;;;;;5090499;28;20051;-39
2022/07/14 20:19:33;;;;;;;2.92;1.30;;;;;;;;;;5090467;28;20017;-39
2022/07/14 20:21:59;;;;;;;2.85;0.93;;;;;;;;;;5073121;28;20024;-39
2022/07/14 20:24:27;;;;;;;3.35;1.02;;;;;;;;;;5090672;28;20024;-39
2022/07/14 20:26:53;;;;;;;4.68;1.20;;;;;;;;;;5090808;28;20024;-40
2022/07/14 20:34:49;;;;;;;2.67;0.82;;;;;;;;;;5090739;28;20059;-40
2022/07/14 20:37:16;;;;;;;20.33;3.65;;;;;;;;;;5090358;28;20036;-39
2022/07/14 20:39:42;;;;;;;3.83;0.70;;;;;;;;;;5072380;28;20024;-38
2022/07/14 20:42:08;;;;;;;2.70;1.23;;;;;;;;;;5090201;28;20119;-38
2022/07/14 20:44:35;;;;;;;2.53;0.82;;;;;;;;;;5090827;28;20059;-38
2022/07/14 20:47:13;;;;;;;3.47;1.10;;;;;;;;;;5072843;28;20032;-40
2022/07/14 20:49:44;;;;;;;3.75;1.10;;;;;;;;;;5072311;28;20027;-40
2022/07/14 20:52:11;;;;;;;4.25;1.20;;;;;;;;;;5072753;28;20031;-39
2022/07/14 20:54:37;;;;;;;1.55;0.82;;;;;;;;;;5074024;28;20372;-39
2022/07/14 20:57:03;;;;;;;4.57;1.67;;;;;;;;;;5072513;28;20031;-39
2022/07/14 20:59:30;;;;;;;3.30;1.40;;;;;;;;;;5072045;28;20052;-39
2022/07/14 21:01:56;;;;;;;2.75;1.20;;;;;;;;;;5071646;28;20028;-39
2022/07/14 21:04:22;;;;;;;4.68;1.30;;;;;;;;;;5089900;28;20025;-39
2022/07/14 21:06:50;;;;;;;1.63;1.33;;;;;;;;;;5089483;28;20040;-39
2022/07/14 21:09:16;;;;;;;2.55;1.10;;;;;;;;;;5089935;28;20017;-39
2022/07/14 21:11:42;;;;;;;16.00;2.25;;;;;;;;;;5090110;28;20024;-39
2022/07/14 21:14:08;;;;;;;4.85;2.17;;;;;;;;;;5090082;28;20484;-39
2022/07/14 21:16:34;;;;;;;1.50;1.17;;;;;;;;;;5089417;28;20020;-39
2022/07/14 21:19:04;;;;;;;2.10;1.50;;;;;;;;;;5058002;28;20108;-39
2022/07/14 21:21:30;;;;;;;40.40;18.75;;;;;;;;;;5076046;28;20046;-39
2022/07/14 21:23:56;;;;;;;5.65;2.95;;;;;;;;;;5057548;28;20032;-39
2022/07/14 21:26:22;;;;;;;3.80;1.27;;;;;;;;;;5076166;28;20511;-39
2022/07/14 21:28:48;;;;;;;10.07;4.82;;;;;;;;;;5075720;28;20052;-49
2022/07/14 21:31:14;;;;;;;5.72;1.65;;;;;;;;;;5075840;28;20029;-39
2022/07/14 21:33:40;;;;;;;3.75;1.33;;;;;;;;;;5075783;28;20032;-38
2022/07/14 21:36:06;;;;;;;1.58;1.23;;;;;;;;;;5075588;28;20169;-39
2022/07/14 21:38:33;;;;;;;3.33;1.90;;;;;;;;;;5075487;28;20050;-39
2022/07/14 21:40:59;;;;;;;1.60;1.27;;;;;;;;;;5075463;28;20029;-38
2022/07/14 21:43:25;;;;;;;5.85;1.75;;;;;;;;;;5076430;28;20025;-38
2022/07/14 21:45:51;;;;;;;2.92;1.42;;;;;;;;;;5075954;28;20405;-38
2022/07/14 21:48:18;;;;;;;5.78;1.80;;;;;;;;;;5076215;28;20354;-44
2022/07/14 21:50:44;;;;;;;4.13;1.30;;;;;;;;;;5075946;28;20044;-40
2022/07/14 21:53:10;;;;;;;2.08;1.13;;;;;;;;;;5075678;28;20488;-39
2022/07/14 21:55:36;;;;;;;4.78;1.92;;;;;;;;;;5076596;28;20029;-40
2022/07/14 21:58:02;;;;;;;4.60;1.80;;;;;;;;;;5075742;28;20024;-39
2022/07/14 22:00:29;;;;;;;5.75;1.50;;;;;;;;;;5075833;28;20024;-38
2022/07/14 22:02:56;;;;;;;2.25;1.40;;;;;;;;;;5076155;28;20430;-39
2022/07/14 22:05:22;;;;;;;2.35;1.33;;;;;;;;;;5075226;28;20119;-39
2022/07/14 22:07:51;;;;;;;3.03;1.63;;;;;;;;;;5075976;28;20017;-37
2022/07/14 22:10:17;;;;;;;2.95;1.75;;;;;;;;;;5075870;28;20012;-45
2022/07/14 22:12:44;;;;;;;5.47;1.52;;;;;;;;;;5057085;28;20464;-38
2022/07/14 22:15:10;;;;;;;11.75;4.63;;;;;;;;;;5057027;28;20538;-38
2022/07/14 22:17:36;;;;;;;3.10;1.25;;;;;;;;;;5075556;28;20034;-39
2022/07/14 22:20:02;;;;;;;3.47;1.70;;;;;;;;;;5074827;28;20016;-39
2022/07/14 22:22:28;;;;;;;11.57;1.80;;;;;;;;;;5074939;28;20031;-40
2022/07/14 22:24:54;;;;;;;3.08;1.67;;;;;;;;;;5056723;28;20120;-38
2022/07/14 22:27:22;;;;;;;3.58;1.58;;;;;;;;;;5075380;28;20394;-38
2022/07/14 22:29:51;;;;;;;3.17;1.50;;;;;;;;;;5073791;28;20511;-39
2022/07/14 22:32:17;;;;;;;3.50;1.80;;;;;;;;;;5074867;28;20476;-39
2022/07/14 22:34:47;;;;;;;7.70;2.10;;;;;;;;;;5074651;28;20544;-38
2022/07/14 22:37:14;;;;;;;7.57;2.65;;;;;;;;;;5057570;28;20369;-38
2022/07/14 22:39:40;;;;;;;4.75;2.05;;;;;;;;;;5056224;28;20029;-38
2022/07/14 22:42:06;;;;;;;6.95;2.10;;;;;;;;;;5074087;28;20392;-38
2022/07/14 22:44:33;;;;;;;4.70;1.98;;;;;;;;;;5074440;28;20107;-39
2022/07/14 22:47:00;;;;;;;7.28;2.13;;;;;;;;;;5074071;28;20552;-38
2022/07/14 22:49:26;;;;;;;8.02;3.00;;;;;;;;;;5056836;28;20495;-38
2022/07/14 22:51:52;;;;;;;7.43;2.42;;;;;;;;;;5056424;28;20020;-38
2022/07/14 22:54:19;;;;;;;2.75;2.15;;;;;;;;;;5074111;28;20050;-39
2022/07/14 22:56:46;;;;;;;7.95;2.08;;;;;;;;;;5074279;28;20372;-38
2022/07/14 22:59:13;;;;;;;4.47;2.35;;;;;;;;;;5056541;28;20039;-38
2022/07/14 23:01:39;;;;;;;2.58;1.77;;;;;;;;;;5074165;28;20468;-39
2022/07/14 23:04:07;;;;;;;4.78;2.08;;;;;;;;;;5073890;28;20033;-40
2022/07/14 23:06:34;;;;;;;2.08;1.58;;;;;;;;;;5055449;28;20045;-38
2022/07/14 23:09:00;;;;;;;7.68;2.92;;;;;;;;;;5073739;28;20031;-38
2022/07/14 23:14:11;;;;;;;3.55;1.40;;;;;;;;;;5074574;28;20055;-38
2022/07/14 23:16:37;;;;;;;3.60;1.83;;;;;;;;;;5073525;28;20430;-38
2022/07/14 23:19:03;;;;;;;12.20;2.53;;;;;;;;;;5073532;28;20058;-39
2022/07/14 23:21:29;;;;;;;3.30;2.08;;;;;;;;;;5073695;28;20096;-38
2022/07/14 23:23:55;;;;;;;6.75;2.63;;;;;;;;;;5055412;28;20472;-38
2022/07/14 23:26:21;;;;;;;5.88;2.38;;;;;;;;;;5073471;28;20024;-39
2022/07/14 23:28:48;;;;;;;7.38;2.30;;;;;;;;;;5055224;28;20492;-40
2022/07/14 23:31:14;;;;;;;3.35;1.90;;;;;;;;;;5073478;28;20033;-38
2022/07/14 23:33:40;;;;;;;5.03;2.00;;;;;;;;;;5073111;28;20024;-38
2022/07/14 23:36:07;;;;;;;5.90;2.25;;;;;;;;;;5073230;28;20047;-38
2022/07/14 23:38:33;;;;;;;5.70;2.95;;;;;;;;;;5055258;28;20082;-39
2022/07/14 23:40:59;;;;;;;6.15;1.95;;;;;;;;;;5072806;28;20028;-38
2022/07/14 23:43:25;;;;;;;3.90;2.47;;;;;;;;;;5073661;28;20032;-39
2022/07/14 23:45:52;;;;;;;10.68;2.95;;;;;;;;;;5073942;28;20033;-39
2022/07/14 23:48:18;;;;;;;7.22;2.15;;;;;;;;;;5074141;28;20028;-41
2022/07/14 23:50:44;;;;;;;6.28;2.30;;;;;;;;;;5073682;28;20020;-38
2022/07/14 23:53:11;;;;;;;5.38;2.05;;;;;;;;;;5073719;28;20032;-39
2022/07/14 23:55:37;;;;;;;9.52;2.33;;;;;;;;;;5073893;28;20071;-37
2022/07/14 23:58:04;;;;;;;4.53;2.63;;;;;;;;;;5074087;28;20062;-38
